Time;durP1;ratioP1;P1;durP2;ratioP2;P2;SDS_P1;SDS_P2;PMS_P1;PMS_P2;Temp;Humidity;BMP_temperature;BMP_pressure;BME280_temperature;BME280_humidity;BME280_pressure;Samples;Min_cycle;Max_cycle;Signal;HPM_P1;HPM_P2
2022/01/04 00:01:59;;;;;;;3.35;1.15;;;15.60;68.20;;;;;;2402622;52;20933;-76
2022/01/04 00:04:28;;;;;;;2.85;0.93;;;15.60;68.10;;;;;;2351816;54;20942;-75
2022/01/04 00:06:57;;;;;;;2.60;0.80;;;15.60;68.00;;;;;;2518300;52;21410;-76
2022/01/04 00:09:27;;;;;;;3.08;1.15;;;15.60;68.50;;;;;;2498498;53;21000;-75
2022/01/04 00:14:28;;;;;;;2.45;0.80;;;15.50;68.40;;;;;;2362615;52;20952;-76
2022/01/04 00:16:55;;;;;;;3.30;1.02;;;15.50;68.70;;;;;;2310091;54;21024;-75
2022/01/04 00:19:22;;;;;;;3.17;1.00;;;15.50;68.90;;;;;;2310823;54;20961;-75
2022/01/04 00:21:48;;;;;;;4.30;1.30;;;15.50;68.70;;;;;;2351687;54;20918;-75
2022/01/04 00:24:15;;;;;;;3.37;1.08;;;15.50;68.90;;;;;;2364326;54;20951;-76
2022/01/04 00:26:42;;;;;;;2.80;1.10;;;15.50;68.90;;;;;;2397417;52;20943;-76
2022/01/04 00:29:08;;;;;;;3.40;1.42;;;15.50;68.80;;;;;;2350492;54;20961;-75
2022/01/04 00:31:35;;;;;;;2.03;0.80;;;15.50;69.00;;;;;;2341593;55;21050;-75
2022/01/04 00:34:01;;;;;;;2.65;1.00;;;15.50;69.20;;;;;;2479622;53;20924;-75
2022/01/04 00:36:27;;;;;;;2.10;0.85;;;15.50;69.30;;;;;;2582030;53;20989;-75
2022/01/04 00:38:54;;;;;;;2.60;0.82;;;15.50;69.20;;;;;;2509064;53;21028;-75
2022/01/04 00:41:22;;;;;;;2.87;1.10;;;15.60;69.30;;;;;;2351394;54;21002;-75
2022/01/04 00:43:50;;;;;;;2.28;0.80;;;15.60;69.40;;;;;;2340122;54;20948;-75
2022/01/04 00:46:17;;;;;;;2.03;0.70;;;15.60;69.10;;;;;;2347261;54;20916;-76
2022/01/04 00:51:29;;;;;;;2.55;1.00;;;15.60;68.70;;;;;;2362025;53;21961;-76
2022/01/04 00:53:55;;;;;;;3.45;1.20;;;15.60;68.90;;;;;;2594722;52;20954;-76
2022/01/04 00:56:22;;;;;;;2.55;0.82;;;15.60;69.20;;;;;;2387736;52;20925;-76
2022/01/04 00:58:48;;;;;;;2.75;1.10;;;15.60;69.20;;;;;;2548550;52;20913;-76
2022/01/04 01:01:14;;;;;;;1.98;0.98;;;15.60;68.40;;;;;;2369536;54;20933;-76
2022/01/04 01:03:41;;;;;;;3.05;1.10;;;15.70;69.00;;;;;;2621097;52;21397;-76
2022/01/04 01:06:09;;;;;;;3.83;1.33;;;15.70;68.90;;;;;;2369804;53;20909;-75
2022/01/04 01:08:36;;;;;;;2.97;1.00;;;15.70;69.00;;;;;;2366520;53;20969;-76
2022/01/04 01:11:05;;;;;;;2.62;0.90;;;15.70;69.10;;;;;;2348371;53;20961;-76
2022/01/04 01:13:32;;;;;;;2.65;1.00;;;15.70;68.90;;;;;;2366941;53;21008;-76
2022/01/04 01:15:58;;;;;;;2.65;1.30;;;15.70;68.90;;;;;;2355191;53;21000;-76
2022/01/04 01:18:25;;;;;;;3.70;1.20;;;15.70;68.90;;;;;;2500525;52;20945;-76
2022/01/04 01:20:54;;;;;;;2.37;0.98;;;15.70;68.90;;;;;;2344076;53;20943;-76
2022/01/04 01:23:21;;;;;;;2.65;1.10;;;15.80;68.80;;;;;;2356183;53;21548;-76
2022/01/04 01:25:48;;;;;;;5.45;1.12;;;15.80;68.50;;;;;;2346087;53;21037;-75
2022/01/04 01:28:15;;;;;;;2.42;0.98;;;15.80;68.70;;;;;;2561858;52;21028;-76
2022/01/04 01:30:43;;;;;;;3.22;1.05;;;15.80;68.30;;;;;;2347984;53;20964;-76
2022/01/04 01:33:10;;;;;;;2.92;1.20;;;15.80;68.20;;;;;;2370604;54;20953;-76
2022/01/04 01:35:37;;;;;;;6.53;1.58;;;15.80;68.40;;;;;;2346336;54;21690;-76
2022/01/04 01:38:04;;;;;;;1.92;0.75;;;15.80;68.10;;;;;;2369740;54;20929;-76
2022/01/04 01:40:30;;;;;;;3.30;1.10;;;15.80;68.00;;;;;;2609705;52;20962;-76
2022/01/04 01:42:56;;;;;;;1.92;0.88;;;15.80;68.10;;;;;;2479307;52;20952;-76
2022/01/04 01:45:23;;;;;;;2.60;1.10;;;15.70;68.00;;;;;;2359292;53;20961;-76
2022/01/04 01:47:50;;;;;;;2.37;0.80;;;15.80;68.40;;;;;;2369605;53;20920;-76
2022/01/04 01:50:17;;;;;;;4.10;1.02;;;15.80;68.00;;;;;;2369066;53;20993;-76
2022/01/04 01:52:46;;;;;;;3.37;0.90;;;15.80;68.40;;;;;;2610879;52;20901;-76
2022/01/04 01:55:12;;;;;;;2.42;0.90;;;15.80;68.40;;;;;;2570706;52;20913;-76
2022/01/04 01:57:39;;;;;;;2.22;1.00;;;15.80;68.10;;;;;;2388167;53;21335;-76
2022/01/04 02:00:08;;;;;;;3.85;1.20;;;15.80;68.30;;;;;;2347621;53;21761;-76
2022/01/04 02:02:38;;;;;;;2.70;1.00;;;15.80;68.20;;;;;;2426581;52;20934;-76
2022/01/04 02:05:05;;;;;;;2.35;1.00;;;15.80;67.60;;;;;;2419633;52;20949;-76
2022/01/04 02:07:31;;;;;;;2.42;0.98;;;15.80;68.30;;;;;;2354800;53;20956;-76
2022/01/04 02:10:03;;;;;;;2.67;1.30;;;15.80;67.70;;;;;;2566009;52;21027;-76
2022/01/04 02:12:36;;;;;;;2.33;0.90;;;15.80;67.70;;;;;;2346727;53;20937;-75
2022/01/04 02:15:04;;;;;;;2.17;0.80;;;15.90;67.70;;;;;;2359573;53;21348;-76
2022/01/04 02:17:31;;;;;;;2.42;1.20;;;15.80;68.00;;;;;;2339208;53;21032;-76
2022/01/04 02:19:58;;;;;;;3.50;1.17;;;15.80;68.00;;;;;;2353885;53;20962;-76
2022/01/04 02:22:25;;;;;;;2.72;1.00;;;15.80;68.00;;;;;;2343283;53;20905;-76
2022/01/04 02:24:52;;;;;;;3.45;1.08;;;15.80;67.30;;;;;;2370001;54;20973;-75
2022/01/04 02:27:18;;;;;;;2.37;1.00;;;15.80;67.40;;;;;;2473310;53;20959;-76
2022/01/04 02:29:44;;;;;;;2.33;0.90;;;15.80;66.90;;;;;;2327410;54;21471;-75
2022/01/04 02:32:11;;;;;;;2.47;1.00;;;15.80;67.20;;;;;;2532030;53;20945;-76
2022/01/04 02:34:37;;;;;;;3.58;0.95;;;15.80;67.30;;;;;;2346150;53;20934;-76
2022/01/04 02:37:03;;;;;;;2.95;1.10;;;15.80;67.30;;;;;;2340813;52;2857604;-75
2022/01/04 02:39:34;;;;;;;2.58;0.90;;;15.80;67.10;;;;;;2351773;53;21037;-76
2022/01/04 02:42:02;;;;;;;4.20;1.10;;;15.70;66.30;;;;;;2483114;53;20965;-76
2022/01/04 02:44:29;;;;;;;1.85;0.80;;;15.70;66.60;;;;;;2619133;52;21713;-75
2022/01/04 02:46:55;;;;;;;2.70;1.10;;;15.70;67.10;;;;;;2343164;53;20964;-77
2022/01/04 02:49:21;;;;;;;2.20;0.90;;;15.70;66.40;;;;;;2622255;52;20893;-75
2022/01/04 02:51:47;;;;;;;2.22;1.02;;;15.70;66.90;;;;;;2369520;53;20972;-75
2022/01/04 02:54:13;;;;;;;3.20;0.95;;;15.70;67.00;;;;;;2369958;53;21533;-75
2022/01/04 02:56:40;;;;;;;2.53;1.12;;;15.60;67.00;;;;;;2367283;53;21096;-76
2022/01/04 02:59:06;;;;;;;2.17;0.70;;;15.60;66.80;;;;;;2346435;53;20933;-75
2022/01/04 03:01:32;;;;;;;2.65;0.95;;;15.50;66.50;;;;;;2369097;54;20992;-76
2022/01/04 03:03:59;;;;;;;2.05;0.77;;;15.50;66.70;;;;;;2384910;52;20930;-76
2022/01/04 03:06:25;;;;;;;1.75;0.75;;;15.40;66.90;;;;;;2412931;52;20964;-76
2022/01/04 03:08:51;;;;;;;2.03;0.73;;;15.40;67.10;;;;;;2346163;53;20925;-76
2022/01/04 03:11:18;;;;;;;2.03;0.80;;;15.30;67.20;;;;;;2430314;52;20993;-76
2022/01/04 03:13:44;;;;;;;3.05;1.10;;;15.30;67.50;;;;;;2411193;52;20921;-76
2022/01/04 03:16:10;;;;;;;2.05;0.85;;;15.30;67.50;;;;;;2563919;53;21345;-75
2022/01/04 03:18:58;;;;;;;2.30;0.90;;;15.20;67.40;;;;;;2345032;53;21065;-75
2022/01/04 03:21:25;;;;;;;2.70;1.00;;;15.20;67.50;;;;;;2345828;54;20905;-76
2022/01/04 03:23:51;;;;;;;2.40;0.90;;;15.20;67.80;;;;;;2369622;54;20901;-76
2022/01/04 03:26:20;;;;;;;2.65;0.80;;;15.20;68.00;;;;;;2365859;54;21020;-75
2022/01/04 03:28:46;;;;;;;2.75;1.00;;;15.20;68.30;;;;;;2346854;53;20953;-76
2022/01/04 03:31:13;;;;;;;2.75;0.90;;;15.20;68.30;;;;;;2369348;54;21085;-75
2022/01/04 03:33:39;;;;;;;2.53;0.80;;;15.20;68.30;;;;;;2370243;54;20913;-76
2022/01/04 03:36:05;;;;;;;2.75;0.98;;;15.20;68.40;;;;;;2369958;54;20933;-76
2022/01/04 03:38:31;;;;;;;3.00;1.00;;;15.20;68.50;;;;;;2369214;54;21343;-76
2022/01/04 03:40:58;;;;;;;2.75;0.93;;;15.20;68.30;;;;;;2467440;52;20905;-76
2022/01/04 03:43:24;;;;;;;1.73;0.80;;;15.20;68.60;;;;;;2556309;52;20897;-76
2022/01/04 03:45:51;;;;;;;2.62;1.00;;;15.20;68.60;;;;;;2481187;52;20901;-76
2022/01/04 03:48:18;;;;;;;3.53;1.00;;;15.20;68.10;;;;;;2354189;52;20926;-76
2022/01/04 03:50:44;;;;;;;2.83;0.80;;;15.20;67.70;;;;;;2346745;53;21502;-76
2022/01/04 03:53:11;;;;;;;2.55;0.90;;;15.20;67.80;;;;;;2369980;54;21447;-76
2022/01/04 03:55:37;;;;;;;3.25;0.80;;;15.10;68.00;;;;;;2622058;52;21980;-76
2022/01/04 03:58:03;;;;;;;2.22;0.90;;;15.10;68.20;;;;;;2622471;52;20909;-76
2022/01/04 04:00:30;;;;;;;3.00;1.08;;;15.10;68.00;;;;;;2369548;54;20966;-76
2022/01/04 04:02:57;;;;;;;2.45;0.90;;;15.10;68.30;;;;;;2338081;54;21521;-76
2022/01/04 04:05:23;;;;;;;3.47;0.95;;;15.10;68.40;;;;;;2346536;53;20965;-76
2022/01/04 04:07:50;;;;;;;2.65;0.90;;;15.10;68.50;;;;;;2340866;53;21465;-76
2022/01/04 04:10:16;;;;;;;1.92;0.60;;;15.00;68.70;;;;;;2361413;53;21057;-76
2022/01/04 04:12:42;;;;;;;2.95;0.90;;;15.10;68.90;;;;;;2369554;54;21055;-76
2022/01/04 04:15:09;;;;;;;2.05;0.88;;;15.00;68.80;;;;;;2369947;54;21726;-75
2022/01/04 04:17:35;;;;;;;2.53;1.00;;;15.00;68.80;;;;;;2369110;53;20909;-75
2022/01/04 04:20:03;;;;;;;2.45;0.57;;;15.00;68.80;;;;;;2360644;53;20945;-76
2022/01/04 04:22:30;;;;;;;3.10;0.95;;;15.00;68.70;;;;;;2340754;53;20969;-75
2022/01/04 04:24:57;;;;;;;1.75;0.73;;;14.90;68.40;;;;;;2474795;52;20929;-75
2022/01/04 04:27:26;;;;;;;1.80;0.70;;;14.90;68.70;;;;;;2601301;52;20885;-75
2022/01/04 04:29:52;;;;;;;2.40;1.12;;;14.80;68.70;;;;;;2603612;52;20893;-75
2022/01/04 04:32:21;;;;;;;3.75;1.20;;;14.80;68.80;;;;;;2446076;52;20957;-76
2022/01/04 04:34:47;;;;;;;2.58;0.93;;;14.70;68.50;;;;;;2351329;53;20922;-76
2022/01/04 04:37:13;;;;;;;3.28;1.17;;;14.60;68.90;;;;;;2371410;53;20950;-76
2022/01/04 04:39:39;;;;;;;2.42;0.82;;;14.60;69.10;;;;;;2369102;53;21659;-76
2022/01/04 04:42:07;;;;;;;2.60;1.00;;;14.60;69.50;;;;;;2370469;53;21029;-76
2022/01/04 04:44:34;;;;;;;4.57;1.02;;;14.60;69.70;;;;;;2345663;53;20945;-76
2022/01/04 04:47:00;;;;;;;2.05;1.00;;;14.50;69.70;;;;;;2369539;53;20957;-75
2022/01/04 04:49:28;;;;;;;2.53;0.90;;;14.50;70.00;;;;;;2451223;52;20990;-75
2022/01/04 04:51:57;;;;;;;3.83;1.23;;;14.50;70.10;;;;;;2542741;52;20913;-76
2022/01/04 04:54:23;;;;;;;2.72;1.00;;;14.40;70.10;;;;;;2355821;53;20957;-76
2022/01/04 04:56:49;;;;;;;3.08;1.23;;;14.50;70.30;;;;;;2359958;53;20985;-76
2022/01/04 04:59:16;;;;;;;2.58;0.98;;;14.40;70.20;;;;;;2350984;53;20973;-75
2022/01/04 05:01:43;;;;;;;3.28;1.10;;;14.40;70.40;;;;;;2364844;53;20921;-75
2022/01/04 05:04:11;;;;;;;2.83;1.17;;;14.40;70.50;;;;;;2369355;54;20953;-75
2022/01/04 05:06:38;;;;;;;2.37;1.02;;;14.30;70.60;;;;;;2411781;52;21855;-76
2022/01/04 05:09:04;;;;;;;1.95;0.90;;;14.30;70.90;;;;;;2369731;54;21036;-76
2022/01/04 05:11:31;;;;;;;2.92;1.20;;;14.30;71.10;;;;;;2369670;53;20969;-76
2022/01/04 05:13:57;;;;;;;3.97;1.25;;;14.30;71.30;;;;;;2366328;53;20905;-76
2022/01/04 05:16:23;;;;;;;2.25;1.00;;;14.20;71.20;;;;;;2360596;53;20908;-76
2022/01/04 05:18:49;;;;;;;2.62;1.20;;;14.20;71.50;;;;;;2516012;52;21077;-76
2022/01/04 05:21:15;;;;;;;2.03;0.88;;;14.20;71.60;;;;;;2367730;54;20910;-76
2022/01/04 05:23:42;;;;;;;3.25;0.90;;;14.20;71.80;;;;;;2620407;52;20970;-76
2022/01/04 05:26:08;;;;;;;3.08;1.00;;;14.20;71.90;;;;;;2513142;52;20945;-76
2022/01/04 05:28:35;;;;;;;2.47;1.10;;;14.20;72.10;;;;;;2404345;52;21461;-76
2022/01/04 05:31:01;;;;;;;2.45;0.80;;;14.20;72.30;;;;;;2365380;53;20996;-76
2022/01/04 05:33:28;;;;;;;2.85;1.08;;;14.20;72.60;;;;;;2342296;53;21560;-77
2022/01/04 05:35:54;;;;;;;2.72;0.80;;;14.20;72.60;;;;;;2357629;53;20945;-76
2022/01/04 05:38:21;;;;;;;2.30;0.95;;;14.20;72.80;;;;;;2349487;53;21457;-77
2022/01/04 05:40:47;;;;;;;2.47;1.10;;;14.30;72.80;;;;;;2402986;52;21720;-76
2022/01/04 05:43:14;;;;;;;2.37;0.90;;;14.20;72.90;;;;;;2367381;53;20980;-76
2022/01/04 05:45:40;;;;;;;2.50;1.00;;;14.20;73.00;;;;;;2356544;53;20905;-76
2022/01/04 05:48:06;;;;;;;2.45;0.90;;;14.30;73.20;;;;;;2354705;53;21081;-76
2022/01/04 05:50:34;;;;;;;2.67;1.12;;;14.20;73.30;;;;;;2352094;53;20929;-76
2022/01/04 05:53:03;;;;;;;3.03;1.05;;;14.30;73.30;;;;;;2370879;53;21001;-77
2022/01/04 05:55:30;;;;;;;2.62;1.00;;;14.30;73.40;;;;;;2366391;53;20945;-76
2022/01/04 05:57:56;;;;;;;3.00;1.08;;;14.30;73.50;;;;;;2349620;53;21341;-76
2022/01/04 06:00:23;;;;;;;2.97;1.30;;;14.30;73.70;;;;;;2429027;53;21012;-76
2022/01/04 06:02:49;;;;;;;2.87;1.20;;;14.40;73.80;;;;;;2354913;53;21185;-76
2022/01/04 06:05:15;;;;;;;3.12;1.10;;;14.40;73.90;;;;;;2358042;53;20956;-76
2022/01/04 06:07:42;;;;;;;2.45;1.00;;;14.40;73.80;;;;;;2334874;53;21325;-76
2022/01/04 06:10:09;;;;;;;3.42;1.00;;;14.40;73.80;;;;;;2379686;53;20941;-76
2022/01/04 06:15:44;;;;;;;2.58;0.82;;;14.40;73.80;;;;;;2375383;52;20949;-76
2022/01/04 06:18:10;;;;;;;2.47;1.00;;;14.50;74.10;;;;;;2367799;54;21026;-76
2022/01/04 06:20:37;;;;;;;2.90;1.08;;;14.50;74.10;;;;;;2390616;52;20961;-76
2022/01/04 06:23:03;;;;;;;2.60;0.95;;;14.50;74.20;;;;;;2369773;53;21337;-77
2022/01/04 06:25:30;;;;;;;1.98;0.75;;;14.50;74.30;;;;;;2356903;53;20977;-76
2022/01/04 06:27:56;;;;;;;2.90;0.90;;;14.60;74.50;;;;;;2356050;53;20945;-76
2022/01/04 06:30:22;;;;;;;3.87;1.10;;;14.60;74.50;;;;;;2611987;52;20961;-76
2022/01/04 06:32:49;;;;;;;2.95;0.90;;;14.60;74.50;;;;;;2414004;53;20937;-76
2022/01/04 06:35:16;;;;;;;2.30;1.10;;;14.60;74.40;;;;;;2351116;53;20913;-76
2022/01/04 06:37:43;;;;;;;2.40;0.90;;;14.70;74.70;;;;;;2340873;53;21437;-77
2022/01/04 06:40:10;;;;;;;2.30;0.90;;;14.80;75.00;;;;;;2367547;54;20929;-76
2022/01/04 06:42:36;;;;;;;2.17;0.90;;;14.80;74.90;;;;;;2343613;53;20933;-77
2022/01/04 06:45:04;;;;;;;2.67;0.98;;;14.90;74.90;;;;;;2367053;54;20965;-76
2022/01/04 06:47:31;;;;;;;3.28;1.08;;;14.90;74.70;;;;;;2342156;53;20921;-76
2022/01/04 06:49:58;;;;;;;3.90;0.90;;;15.00;75.00;;;;;;2400510;52;21413;-77
2022/01/04 06:52:24;;;;;;;2.08;0.80;;;15.00;75.00;;;;;;2367447;54;20937;-76
2022/01/04 06:54:50;;;;;;;2.80;0.90;;;15.10;74.60;;;;;;2355582;52;21339;-76
2022/01/04 06:57:19;;;;;;;2.10;0.80;;;15.10;74.50;;;;;;2337726;53;20942;-76
2022/01/04 06:59:54;;;;;;;1.83;0.60;;;15.20;74.80;;;;;;2365259;53;20934;-77
2022/01/04 07:02:21;;;;;;;1.25;0.55;;;15.30;74.70;;;;;;2421851;52;20897;-77
2022/01/04 07:04:47;;;;;;;2.25;0.50;;;15.30;74.50;;;;;;2517698;52;20965;-76
2022/01/04 07:07:13;;;;;;;2.37;0.75;;;15.30;74.10;;;;;;2367311;54;20933;-77
2022/01/04 07:09:39;;;;;;;1.58;0.60;;;15.30;74.00;;;;;;2367751;54;21586;-76
2022/01/04 07:12:06;;;;;;;3.53;0.82;;;15.40;74.30;;;;;;2368707;53;20957;-76
2022/01/04 07:14:32;;;;;;;2.65;0.80;;;15.40;74.20;;;;;;2343588;53;21347;-76
2022/01/04 07:16:58;;;;;;;2.22;0.75;;;15.40;74.20;;;;;;2373943;52;20935;-76
2022/01/04 07:19:25;;;;;;;2.25;0.70;;;15.50;74.40;;;;;;2459714;52;21254;-76
2022/01/04 07:21:51;;;;;;;1.92;0.62;;;15.50;74.30;;;;;;2367080;54;21743;-76
2022/01/04 07:24:18;;;;;;;1.60;0.52;;;15.50;74.00;;;;;;2376988;52;20989;-76
2022/01/04 07:26:44;;;;;;;1.50;0.65;;;15.50;74.10;;;;;;2501309;52;20894;-76
2022/01/04 07:29:10;;;;;;;1.95;0.73;;;15.60;74.00;;;;;;2387154;53;21430;-76
2022/01/04 07:31:37;;;;;;;2.60;0.70;;;15.60;74.30;;;;;;2373540;52;21312;-76
2022/01/04 07:34:03;;;;;;;2.30;0.73;;;15.60;74.10;;;;;;2595475;52;21394;-77
2022/01/04 07:36:31;;;;;;;1.67;0.75;;;15.60;74.30;;;;;;2405636;53;20984;-75
2022/01/04 07:39:00;;;;;;;1.52;0.73;;;15.60;74.10;;;;;;2472724;53;20913;-76
2022/01/04 07:41:27;;;;;;;2.00;0.60;;;15.70;74.40;;;;;;2368201;53;21025;-76
2022/01/04 07:43:53;;;;;;;1.48;0.68;;;15.70;74.40;;;;;;2367911;54;20929;-76
2022/01/04 07:46:20;;;;;;;2.72;0.80;;;15.70;74.40;;;;;;2376727;52;20909;-76
2022/01/04 07:48:49;;;;;;;1.70;0.70;;;15.80;74.20;;;;;;2381981;52;21449;-76
2022/01/04 07:51:16;;;;;;;3.12;0.75;;;15.80;74.10;;;;;;2367977;53;20964;-76
2022/01/04 07:53:42;;;;;;;2.83;0.75;;;15.80;73.80;;;;;;2339198;53;20917;-76
2022/01/04 07:56:10;;;;;;;1.92;0.75;;;15.90;74.20;;;;;;2355419;53;20974;-76
2022/01/04 07:58:36;;;;;;;1.60;0.70;;;15.90;74.30;;;;;;2336402;54;21513;-76
2022/01/04 08:01:02;;;;;;;1.67;0.60;;;15.90;74.40;;;;;;2353627;53;21857;-77
2022/01/04 08:03:29;;;;;;;2.20;0.68;;;16.00;74.20;;;;;;2413667;52;20949;-76
2022/01/04 08:05:55;;;;;;;2.03;1.00;;;16.00;73.90;;;;;;2426992;53;20913;-76
2022/01/04 08:08:22;;;;;;;1.50;0.60;;;16.10;74.00;;;;;;2423534;52;21000;-75
2022/01/04 08:10:50;;;;;;;2.10;0.80;;;16.10;73.80;;;;;;2369689;54;20945;-75
2022/01/04 08:13:30;;;;;;;2.85;0.77;;;16.20;74.00;;;;;;2369610;53;20968;-75
2022/01/04 08:15:56;;;;;;;4.37;0.85;;;16.20;73.50;;;;;;2362910;53;21069;-75
2022/01/04 08:18:23;;;;;;;1.73;0.60;;;16.30;73.70;;;;;;2352297;53;22023;-75
2022/01/04 08:20:53;;;;;;;1.92;0.70;;;16.30;73.80;;;;;;2367811;53;21401;-75
2022/01/04 08:23:20;;;;;;;3.50;0.90;;;16.30;74.00;;;;;;2345290;53;20964;-76
2022/01/04 08:25:46;;;;;;;1.90;0.75;;;16.40;74.00;;;;;;2365849;53;20997;-75
2022/01/04 08:28:12;;;;;;;2.58;0.70;;;16.40;73.50;;;;;;2369493;53;20933;-75
2022/01/04 08:30:38;;;;;;;2.03;0.85;;;16.40;73.40;;;;;;2325306;54;20978;-75
2022/01/04 08:33:09;;;;;;;2.25;0.80;;;16.40;73.10;;;;;;2380326;53;20965;-74
2022/01/04 08:35:35;;;;;;;2.90;0.85;;;16.50;73.40;;;;;;2362871;54;20965;-75
2022/01/04 08:38:06;;;;;;;1.90;0.77;;;16.50;73.40;;;;;;2360341;54;21005;-75
2022/01/04 08:40:33;;;;;;;1.98;0.70;;;16.50;73.00;;;;;;2459815;53;20936;-75
2022/01/04 08:42:59;;;;;;;1.87;0.80;;;16.60;72.90;;;;;;2463746;52;21018;-75
2022/01/04 08:45:27;;;;;;;2.45;0.80;;;16.50;72.70;;;;;;2335300;54;20948;-75
2022/01/04 08:47:54;;;;;;;3.45;1.00;;;16.60;72.60;;;;;;2339122;53;20937;-75
2022/01/04 08:50:22;;;;;;;3.37;1.27;;;16.60;72.20;;;;;;2338735;53;21521;-75
2022/01/04 08:52:54;;;;;;;6.28;2.08;;;16.60;72.40;;;;;;2340890;53;21001;-76
2022/01/04 08:55:22;;;;;;;5.87;2.97;;;16.60;72.00;;;;;;2422697;52;21108;-75
2022/01/04 08:57:48;;;;;;;3.42;1.67;;;16.60;71.80;;;;;;2484394;53;21481;-75
2022/01/04 09:00:16;;;;;;;2.45;1.10;;;16.60;71.50;;;;;;2563726;53;20929;-74
2022/01/04 09:02:45;;;;;;;3.65;1.10;;;16.60;71.90;;;;;;2612444;52;21065;-77
2022/01/04 09:05:12;;;;;;;4.37;1.15;;;16.60;71.50;;;;;;2367384;52;21093;-74
2022/01/04 09:07:38;;;;;;;3.28;1.30;;;16.60;71.70;;;;;;2415386;52;20954;-76
2022/01/04 09:10:06;;;;;;;3.58;1.48;;;16.60;72.10;;;;;;2362613;54;20946;-75
2022/01/04 09:13:17;;;;;;;4.45;2.00;;;16.60;71.90;;;;;;2542054;52;21049;-75
2022/01/04 09:18:43;;;;;;;3.33;1.67;;;16.60;71.80;;;;;;2408100;52;20936;-75
2022/01/04 09:21:26;;;;;;;2.60;1.02;;;16.60;71.80;;;;;;2581757;52;20918;-74
2022/01/04 09:23:53;;;;;;;3.67;1.17;;;16.60;71.90;;;;;;2344616;54;20985;-75
2022/01/04 09:26:20;;;;;;;4.28;1.23;;;16.50;71.40;;;;;;2403975;53;21443;-74
2022/01/04 09:28:46;;;;;;;2.37;0.95;;;16.50;72.00;;;;;;2353477;54;20929;-74
2022/01/04 09:31:12;;;;;;;3.55;1.00;;;16.50;72.10;;;;;;2335717;54;21024;-75
2022/01/04 09:33:39;;;;;;;3.05;1.33;;;16.50;71.90;;;;;;2543372;52;20977;-75
2022/01/04 09:36:22;;;;;;;3.72;1.20;;;16.50;72.30;;;;;;2334439;53;21491;-75
2022/01/04 09:38:48;;;;;;;3.12;1.45;;;16.50;72.10;;;;;;2330474;54;20927;-75
2022/01/04 09:41:14;;;;;;;3.20;1.23;;;16.60;72.50;;;;;;2367661;53;21052;-74
2022/01/04 09:43:41;;;;;;;3.55;1.37;;;16.60;72.30;;;;;;2370771;52;21420;-74
2022/01/04 09:46:07;;;;;;;4.12;1.87;;;16.60;72.20;;;;;;2444557;53;21483;-74
2022/01/04 09:48:34;;;;;;;3.70;1.50;;;16.60;71.30;;;;;;2358232;54;21438;-74
2022/01/04 09:51:00;;;;;;;2.72;1.12;;;16.70;71.80;;;;;;2345769;54;21810;-75
2022/01/04 09:53:27;;;;;;;2.78;1.30;;;16.70;71.90;;;;;;2390786;53;21565;-75
2022/01/04 09:55:54;;;;;;;3.85;1.73;;;16.70;71.90;;;;;;2462090;52;21684;-75
2022/01/04 09:58:22;;;;;;;3.35;1.20;;;16.80;71.40;;;;;;2499747;52;21016;-74
2022/01/04 10:00:49;;;;;;;3.15;1.40;;;16.80;71.60;;;;;;2404253;53;20963;-75
2022/01/04 10:03:17;;;;;;;4.12;1.90;;;16.80;71.60;;;;;;2479705;53;21402;-75
2022/01/04 10:05:46;;;;;;;4.75;1.30;;;16.90;71.50;;;;;;2362453;54;20979;-74
2022/01/04 10:08:13;;;;;;;3.83;1.90;;;16.90;71.20;;;;;;2345674;54;20982;-75
2022/01/04 10:10:40;;;;;;;2.58;1.30;;;17.00;71.90;;;;;;2490942;53;20949;-74
2022/01/04 10:13:13;;;;;;;4.05;1.70;;;17.00;71.60;;;;;;2362776;54;20966;-75
2022/01/04 10:15:42;;;;;;;2.72;1.20;;;17.00;71.50;;;;;;2442577;52;21065;-75
2022/01/04 10:18:23;;;;;;;3.37;1.50;;;17.10;71.30;;;;;;2363151;54;21037;-75
2022/01/04 10:20:52;;;;;;;3.37;1.40;;;17.10;69.90;;;;;;2363721;54;21463;-75
2022/01/04 10:23:20;;;;;;;3.05;1.20;;;17.10;70.60;;;;;;2614683;52;20910;-75
2022/01/04 10:25:47;;;;;;;3.80;1.25;;;17.20;70.60;;;;;;2363436;54;21273;-74
2022/01/04 10:28:28;;;;;;;2.72;1.00;;;17.20;70.80;;;;;;2346611;54;21015;-75
2022/01/04 10:30:54;;;;;;;2.43;0.93;;;17.10;70.50;;;;;;2362829;54;21896;-75
2022/01/04 10:33:21;;;;;;;3.47;0.90;;;17.20;70.70;;;;;;2361444;54;21382;-75
2022/01/04 10:35:48;;;;;;;4.95;0.90;;;17.20;70.50;;;;;;2424916;52;21646;-74
2022/01/04 10:38:22;;;;;;;2.17;0.90;;;17.20;70.60;;;;;;2361519;54;20934;-75
2022/01/04 10:41:04;;;;;;;8.75;1.27;;;17.30;70.20;;;;;;2360819;54;20945;-75
2022/01/04 10:43:38;;;;;;;2.80;1.00;;;17.30;69.80;;;;;;2612027;52;21343;-75
2022/01/04 10:46:05;;;;;;;2.00;0.80;;;17.30;70.70;;;;;;2337891;54;21040;-74
2022/01/04 10:48:39;;;;;;;3.10;1.20;;;17.30;70.70;;;;;;2467277;53;20932;-75
2022/01/04 10:51:08;;;;;;;2.45;1.10;;;17.30;70.50;;;;;;2343492;53;20960;-74
2022/01/04 10:53:50;;;;;;;2.45;1.00;;;17.30;70.40;;;;;;2319223;54;21059;-75
2022/01/04 10:56:38;;;;;;;3.28;1.00;;;17.40;70.00;;;;;;2327251;54;21832;-75
2022/01/04 10:59:09;;;;;;;2.97;1.00;;;17.40;70.20;;;;;;2307934;54;21068;-75
2022/01/04 11:01:40;;;;;;;2.70;1.02;;;17.40;70.70;;;;;;2491976;54;20935;-74
2022/01/04 11:04:14;;;;;;;3.87;1.00;;;17.40;70.00;;;;;;2361547;54;21007;-75
2022/01/04 11:06:40;;;;;;;2.97;1.17;;;17.40;69.60;;;;;;2394659;53;20968;-75
2022/01/04 11:09:07;;;;;;;2.50;1.20;;;17.40;70.10;;;;;;2352428;53;21007;-74
2022/01/04 11:11:34;;;;;;;2.97;1.00;;;17.40;70.70;;;;;;2324826;54;21500;-75
2022/01/04 11:14:02;;;;;;;3.05;1.10;;;17.40;70.00;;;;;;2335222;54;21393;-75
2022/01/04 11:16:29;;;;;;;2.35;0.90;;;17.40;69.70;;;;;;2358252;54;21519;-75
2022/01/04 11:18:56;;;;;;;2.30;1.10;;;17.40;69.50;;;;;;2358966;54;20958;-75
2022/01/04 11:21:36;;;;;;;3.62;1.15;;;17.40;69.90;;;;;;2358663;54;21074;-75
2022/01/04 11:24:06;;;;;;;2.83;1.02;;;17.40;69.00;;;;;;2608860;53;20940;-74
2022/01/04 11:26:32;;;;;;;3.55;1.27;;;17.40;69.80;;;;;;2329883;53;20968;-75
2022/01/04 11:28:58;;;;;;;2.90;0.98;;;17.40;69.90;;;;;;2393783;53;20929;-75
2022/01/04 11:32:25;;;;;;;3.15;1.27;;;17.40;70.00;;;;;;2381123;52;21941;-75
2022/01/04 11:35:12;;;;;;;2.92;1.20;;;17.50;69.70;;;;;;2439029;52;21036;-75
2022/01/04 11:37:41;;;;;;;2.30;1.05;;;17.50;69.90;;;;;;2349333;53;20988;-74
2022/01/04 11:43:39;;;;;;;3.37;1.12;;;17.50;70.10;;;;;;2361822;54;20909;-74
2022/01/04 11:46:36;;;;;;;2.95;1.00;;;17.60;67.90;;;;;;2343642;54;20968;-74
2022/01/04 11:49:06;;;;;;;2.28;0.93;;;17.60;67.50;;;;;;2368138;54;21013;-74
2022/01/04 11:51:36;;;;;;;2.50;1.12;;;17.70;68.70;;;;;;2619652;52;20973;-75
2022/01/04 11:54:20;;;;;;;1.80;0.70;;;17.70;69.00;;;;;;2352326;53;20904;-75
2022/01/04 11:57:06;;;;;;;2.03;0.73;;;17.70;68.40;;;;;;2388588;53;21028;-75
2022/01/04 11:59:37;;;;;;;2.55;1.00;;;17.80;69.30;;;;;;2411697;52;20918;-75
2022/01/04 12:02:28;;;;;;;2.10;0.88;;;17.80;69.40;;;;;;2346926;53;20921;-74
2022/01/04 12:04:57;;;;;;;2.28;0.90;;;17.80;68.90;;;;;;2368192;54;20905;-75
2022/01/04 12:14:24;;;;;;;2.20;0.90;;;17.80;69.50;;;;;;2367553;54;20976;-74
2022/01/04 12:17:33;;;;;;;2.72;0.65;;;17.90;69.70;;;;;;2395616;52;20965;-75
2022/01/04 12:19:59;;;;;;;2.15;0.60;;;17.90;69.20;;;;;;2354463;53;20969;-74
2022/01/04 12:22:32;;;;;;;2.58;0.98;;;17.90;70.70;;;;;;2357882;53;20983;-74
2022/01/04 12:25:03;;;;;;;2.95;0.73;;;17.90;69.80;;;;;;2344108;53;20925;-75
2022/01/04 12:27:29;;;;;;;2.03;0.70;;;17.90;70.30;;;;;;2367830;54;21686;-74
2022/01/04 12:30:27;;;;;;;2.47;0.60;;;17.90;69.00;;;;;;2367710;54;20925;-75
2022/01/04 12:33:22;;;;;;;2.25;0.70;;;17.90;67.70;;;;;;2367946;53;20905;-75
2022/01/04 12:35:48;;;;;;;2.35;0.70;;;17.90;69.40;;;;;;2367974;54;20913;-75
2022/01/04 12:38:16;;;;;;;1.30;0.50;;;17.90;68.80;;;;;;2367219;54;20937;-75
2022/01/04 12:40:42;;;;;;;2.20;0.75;;;17.90;69.20;;;;;;2439490;52;20993;-74
2022/01/04 12:43:09;;;;;;;2.17;1.08;;;17.90;69.80;;;;;;2368459;54;20874;-74
2022/01/04 12:45:35;;;;;;;1.80;0.80;;;17.90;69.20;;;;;;2367690;54;20988;-74
2022/01/04 12:48:02;;;;;;;2.45;0.80;;;17.90;69.30;;;;;;2350973;53;21052;-75
2022/01/04 12:50:29;;;;;;;2.70;0.98;;;17.90;69.30;;;;;;2351106;53;20905;-74
2022/01/04 12:52:55;;;;;;;2.87;0.82;;;17.90;69.10;;;;;;2339162;53;21056;-75
2022/01/04 12:55:22;;;;;;;1.70;0.73;;;17.90;69.30;;;;;;2361810;53;21073;-74
2022/01/04 12:57:52;;;;;;;1.92;0.70;;;17.90;69.70;;;;;;2369597;53;20984;-75
2022/01/04 13:00:19;;;;;;;2.12;0.85;;;17.90;69.20;;;;;;2344906;53;21100;-75
2022/01/04 13:02:45;;;;;;;2.22;0.70;;;17.90;69.90;;;;;;2345253;53;21542;-74
2022/01/04 13:05:15;;;;;;;1.77;0.82;;;17.90;69.60;;;;;;2348602;53;21854;-75
2022/01/04 13:07:42;;;;;;;2.37;0.80;;;18.00;69.80;;;;;;2367041;53;21005;-75
2022/01/04 13:10:14;;;;;;;1.37;0.57;;;18.00;69.70;;;;;;2369455;54;20933;-75
2022/01/04 13:12:41;;;;;;;3.28;0.90;;;18.00;69.60;;;;;;2344265;53;21146;-74
2022/01/04 13:15:13;;;;;;;2.53;0.90;;;18.00;69.40;;;;;;2367175;54;20925;-75
2022/01/04 13:17:44;;;;;;;2.42;0.85;;;18.00;69.10;;;;;;2368236;53;21473;-75